createdAt,value
2017-06-08T00:00:21.741Z,34.62
2017-06-08T00:01:21.777Z,34.72
2017-06-08T00:02:21.447Z,34.53
2017-06-08T00:03:21.765Z,34.72
2017-06-08T00:04:21.773Z,34.99
2017-06-08T00:05:21.781Z,34.72
2017-06-08T00:06:21.790Z,34.61
2017-06-08T00:07:21.850Z,34.7
2017-06-08T00:08:21.506Z,34.62
2017-06-08T00:09:21.818Z,34.81
2017-06-08T00:10:21.516Z,34.7
2017-06-08T00:11:21.835Z,34.62
2017-06-08T00:12:21.840Z,34.43
2017-06-08T00:13:21.852Z,34.61
2017-06-08T00:14:21.857Z,34.7
2017-06-08T00:15:21.867Z,34.7
2017-06-08T00:16:21.877Z,34.51
2017-06-08T00:17:21.934Z,34.7
2017-06-08T00:18:21.892Z,34.72
2017-06-08T00:19:21.899Z,34.89
2017-06-08T00:20:21.909Z,34.8
2017-06-08T00:21:21.919Z,34.7
2017-06-08T00:22:21.927Z,34.7
2017-06-08T00:23:21.940Z,34.62
2017-06-08T00:24:21.945Z,34.89
2017-06-08T00:25:22.025Z,34.51
2017-06-08T00:26:21.654Z,34.51
2017-06-08T00:27:21.971Z,34.7
2017-06-08T00:28:21.978Z,34.22
2017-06-08T00:29:22.038Z,34.8
2017-06-08T00:30:22.045Z,34.61
2017-06-08T00:31:22.003Z,34.51
2017-06-08T00:32:22.020Z,34.41
2017-06-08T00:33:21.711Z,34.51
2017-06-08T00:34:22.030Z,34.61
2017-06-08T00:35:22.036Z,34.7
2017-06-08T00:36:22.049Z,34.53
2017-06-08T00:37:22.055Z,34.61
2017-06-08T00:38:22.063Z,34.61
2017-06-08T00:39:22.068Z,34.61
2017-06-08T00:40:22.081Z,34.7
2017-06-08T00:41:21.777Z,34.7
2017-06-08T00:42:22.147Z,34.61
2017-06-08T00:43:22.108Z,34.7
2017-06-08T00:44:22.116Z,34.99
2017-06-08T00:45:22.121Z,34.61
2017-06-08T00:46:22.182Z,34.8
2017-06-08T00:47:22.141Z,34.7
2017-06-08T00:48:22.146Z,34.8
2017-06-08T00:49:22.156Z,34.8
2017-06-08T00:50:21.885Z,34.7
2017-06-08T00:51:22.172Z,34.7
2017-06-08T00:52:22.184Z,34.89
2017-06-08T00:53:22.258Z,34.89
2017-06-08T00:54:22.248Z,35.09
2017-06-08T00:55:22.258Z,35.09
2017-06-08T00:56:22.217Z,34.89
2017-06-08T00:57:22.224Z,34.8
2017-06-08T00:58:22.234Z,34.99
2017-06-08T00:59:22.241Z,34.89
2017-06-08T01:00:22.250Z,35.09
2017-06-08T01:01:22.257Z,34.99
2017-06-08T01:02:22.267Z,34.89
2017-06-08T01:03:22.276Z,35.09
2017-06-08T01:04:22.282Z,34.99
2017-06-08T01:05:21.981Z,35.09
2017-06-08T01:06:22.316Z,34.89
2017-06-08T01:07:22.309Z,35.28
2017-06-08T01:08:22.007Z,34.99
2017-06-08T01:09:22.325Z,35.09
2017-06-08T01:10:22.384Z,35.19
2017-06-08T01:11:22.347Z,35.09
2017-06-08T01:12:22.353Z,35.19
2017-06-08T01:13:22.366Z,34.99
2017-06-08T01:14:22.110Z,35.19
2017-06-08T01:15:22.377Z,35.09
2017-06-08T01:16:22.385Z,34.99
2017-06-08T01:17:22.394Z,35.09
2017-06-08T01:18:22.451Z,35.09
2017-06-08T01:19:22.100Z,34.99
2017-06-08T01:20:22.107Z,34.99
2017-06-08T01:21:22.427Z,35.09
2017-06-08T01:22:22.436Z,34.89
2017-06-08T01:23:22.135Z,34.99
2017-06-08T01:24:22.452Z,34.99
2017-06-08T01:25:22.465Z,35.09
2017-06-08T01:26:22.471Z,34.99
2017-06-08T01:27:22.480Z,34.89
2017-06-08T01:28:22.490Z,34.99
2017-06-08T01:29:22.495Z,34.99
2017-06-08T01:30:22.539Z,34.99
2017-06-08T01:31:22.202Z,34.99
2017-06-08T01:32:22.521Z,34.99
2017-06-08T01:33:22.220Z,34.99
2017-06-08T01:34:22.588Z,34.8
2017-06-08T01:35:22.547Z,34.99
2017-06-08T01:36:22.246Z,34.8
2017-06-08T01:37:22.562Z,34.89
2017-06-08T01:38:22.572Z,34.89
2017-06-08T01:39:22.581Z,34.99
2017-06-08T01:40:22.277Z,34.89
2017-06-08T01:41:22.599Z,34.99
2017-06-08T01:42:22.652Z,34.97
2017-06-08T01:43:22.612Z,34.7
2017-06-08T01:44:22.622Z,34.88
2017-06-08T01:45:22.631Z,34.78
2017-06-08T01:46:22.329Z,34.78
2017-06-08T01:47:22.647Z,34.89
2017-06-08T01:48:22.656Z,34.97
2017-06-08T01:49:22.671Z,34.78
2017-06-08T01:50:22.671Z,34.88
2017-06-08T01:51:22.370Z,34.88
2017-06-08T01:52:22.382Z,34.78
2017-06-08T01:53:22.697Z,34.69
2017-06-08T01:54:22.756Z,34.88
2017-06-08T01:55:22.713Z,34.78
2017-06-08T01:56:22.722Z,34.78
2017-06-08T01:57:22.781Z,34.88
2017-06-08T01:58:22.737Z,34.78
2017-06-08T01:59:22.747Z,34.8
2017-06-08T02:00:22.573Z,34.7
2017-06-08T02:01:22.455Z,34.89
2017-06-08T02:02:23.073Z,34.88
2017-06-08T02:03:22.470Z,34.89
2017-06-08T02:04:22.478Z,34.78
2017-06-08T02:05:22.850Z,34.88
2017-06-08T02:06:22.807Z,34.8
2017-06-08T02:07:22.814Z,34.89
2017-06-08T02:08:22.823Z,34.78
2017-06-08T02:09:22.830Z,34.78
2017-06-08T02:10:22.841Z,34.78
2017-06-08T02:11:22.855Z,34.88
2017-06-08T02:12:22.855Z,34.97
2017-06-08T02:13:22.865Z,34.78
2017-06-08T02:14:22.922Z,34.78
2017-06-08T02:15:22.882Z,34.8
2017-06-08T02:16:22.889Z,34.78
2017-06-08T02:17:22.903Z,34.78
2017-06-08T02:18:22.594Z,34.78
2017-06-08T02:19:22.915Z,34.78
2017-06-08T02:20:22.930Z,34.88
2017-06-08T02:21:22.676Z,34.69
2017-06-08T02:22:22.631Z,34.78
2017-06-08T02:23:22.638Z,34.8
2017-06-08T02:24:22.956Z,34.78
2017-06-08T02:25:22.969Z,34.78
2017-06-08T02:26:22.977Z,34.78
2017-06-08T02:27:22.982Z,34.88
2017-06-08T02:28:22.991Z,34.78
2017-06-08T02:29:22.997Z,34.69
2017-06-08T02:30:23.009Z,34.78
2017-06-08T02:31:23.015Z,34.78
2017-06-08T02:32:23.077Z,34.69
2017-06-08T02:33:23.087Z,34.78
2017-06-08T02:34:22.732Z,34.78
2017-06-08T02:35:22.741Z,34.78
2017-06-08T02:36:23.060Z,34.78
2017-06-08T02:37:23.118Z,34.78
2017-06-08T02:38:22.764Z,34.78
2017-06-08T02:39:23.140Z,34.88
2017-06-08T02:40:23.092Z,34.88
2017-06-08T02:41:22.842Z,34.69
2017-06-08T02:42:23.110Z,34.78
2017-06-08T02:43:23.119Z,34.69
2017-06-08T02:44:23.127Z,34.88
2017-06-08T02:45:23.184Z,34.78
2017-06-08T02:46:23.142Z,34.78
2017-06-08T02:47:23.204Z,34.88
2017-06-08T02:48:23.159Z,34.88
2017-06-08T02:49:22.858Z,34.78
2017-06-08T02:50:23.178Z,34.78
2017-06-08T02:51:23.187Z,34.78
2017-06-08T02:52:22.883Z,34.78
2017-06-08T02:53:23.255Z,34.78
2017-06-08T02:54:22.900Z,34.69
2017-06-08T02:55:23.221Z,34.78
2017-06-08T02:56:23.228Z,34.69
2017-06-08T02:57:23.240Z,34.78
2017-06-08T02:58:23.247Z,34.78
2017-06-08T02:59:22.945Z,34.69
2017-06-08T03:00:23.263Z,34.78
2017-06-08T03:01:23.271Z,34.69
2017-06-08T03:02:23.072Z,34.78
2017-06-08T03:03:23.289Z,34.78
2017-06-08T03:04:23.299Z,34.78
2017-06-08T03:05:23.305Z,34.88
2017-06-08T03:06:23.320Z,34.69
2017-06-08T03:07:23.324Z,34.78
2017-06-08T03:08:23.024Z,34.69
2017-06-08T03:09:23.389Z,34.78
2017-06-08T03:10:23.355Z,34.78
2017-06-08T03:11:23.360Z,34.78
2017-06-08T03:12:23.366Z,34.88
2017-06-08T03:13:23.376Z,34.78
2017-06-08T03:14:23.384Z,34.78
2017-06-08T03:15:23.082Z,34.78
2017-06-08T03:16:23.089Z,34.78
2017-06-08T03:17:23.408Z,34.78
2017-06-08T03:18:23.418Z,34.78
2017-06-08T03:19:23.426Z,34.78
2017-06-08T03:20:23.439Z,34.78
2017-06-08T03:21:23.447Z,34.78
2017-06-08T03:22:23.453Z,34.88
2017-06-08T03:23:23.465Z,34.88
2017-06-08T03:24:23.158Z,34.78
2017-06-08T03:25:23.169Z,34.88
2017-06-08T03:26:23.490Z,34.88
2017-06-08T03:27:23.494Z,34.88
2017-06-08T03:28:23.502Z,34.88
2017-06-08T03:29:23.198Z,34.88
2017-06-08T03:30:23.520Z,34.97
2017-06-08T03:31:23.531Z,34.88
2017-06-08T03:32:23.539Z,35.07
2017-06-08T03:33:23.546Z,34.78
2017-06-08T03:34:23.246Z,34.88
2017-06-08T03:35:23.561Z,34.88
2017-06-08T03:36:23.571Z,35.17
2017-06-08T03:37:23.629Z,35.07
2017-06-08T03:38:23.589Z,34.88
2017-06-08T03:39:23.291Z,35.27
2017-06-08T03:40:23.608Z,35.17
2017-06-08T03:41:23.915Z,35.17
2017-06-08T03:42:23.626Z,35.27
2017-06-08T03:43:23.632Z,35.17
2017-06-08T03:44:23.646Z,35.17
2017-06-08T03:45:23.648Z,34.97
2017-06-08T03:46:23.659Z,35.17
2017-06-08T03:47:23.664Z,35.17
2017-06-08T03:48:23.364Z,35.17
2017-06-08T03:49:23.684Z,35.17
2017-06-08T03:50:23.379Z,35.27
2017-06-08T03:51:23.700Z,35.17
2017-06-08T03:52:23.707Z,35.17
2017-06-08T03:53:23.716Z,35.07
2017-06-08T03:54:23.725Z,35.17
2017-06-08T03:55:23.734Z,35.17
2017-06-08T03:56:23.432Z,35.27
2017-06-08T03:57:23.753Z,35.17
2017-06-08T03:58:23.448Z,35.17
2017-06-08T03:59:23.457Z,35.27
2017-06-08T04:00:23.775Z,35.36
2017-06-08T04:01:24.083Z,35.27
2017-06-08T04:02:23.793Z,35.27
2017-06-08T04:03:23.800Z,35.27
2017-06-08T04:04:23.502Z,35.17
2017-06-08T04:05:23.820Z,35.17
2017-06-08T04:06:23.875Z,35.07
2017-06-08T04:07:23.833Z,35.17
2017-06-08T04:08:23.843Z,35.27
2017-06-08T04:09:23.852Z,35.07
2017-06-08T04:10:23.861Z,35.27
2017-06-08T04:11:23.868Z,35.27
2017-06-08T04:12:23.877Z,35.17
2017-06-08T04:13:23.884Z,35.17
2017-06-08T04:14:23.944Z,35.07
2017-06-08T04:15:23.905Z,35.17
2017-06-08T04:16:23.946Z,35.27
2017-06-08T04:17:23.918Z,35.17
2017-06-08T04:18:23.927Z,35.07
2017-06-08T04:19:23.936Z,35.46
2017-06-08T04:20:23.946Z,35.46
2017-06-08T04:21:23.643Z,35.56
2017-06-08T04:22:24.012Z,35.17
2017-06-08T04:23:24.013Z,35.36
2017-06-08T04:24:23.977Z,35.56
2017-06-08T04:25:23.987Z,35.07
2017-06-08T04:26:23.999Z,35.17
2017-06-08T04:27:24.004Z,35.17
2017-06-08T04:28:24.010Z,35.17
2017-06-08T04:29:24.021Z,35.56
2017-06-08T04:30:24.028Z,35.17
2017-06-08T04:31:24.039Z,35.46
2017-06-08T04:32:24.047Z,35.46
2017-06-08T04:33:24.055Z,35.36
2017-06-08T04:34:24.061Z,35.36
2017-06-08T04:35:23.770Z,35.46
2017-06-08T04:36:24.080Z,35.46
2017-06-08T04:37:24.085Z,35.46
2017-06-08T04:38:24.095Z,35.46
2017-06-08T04:39:23.791Z,35.46
2017-06-08T04:40:23.802Z,35.56
2017-06-08T04:41:24.119Z,35.46
2017-06-08T04:42:24.116Z,35.46
2017-06-08T04:43:24.135Z,35.46
2017-06-08T04:44:24.145Z,35.46
2017-06-08T04:45:24.154Z,35.46
2017-06-08T04:46:24.159Z,35.36
2017-06-08T04:47:24.168Z,35.46
2017-06-08T04:48:23.869Z,35.46
2017-06-08T04:49:23.875Z,35.46
2017-06-08T04:50:24.193Z,35.46
2017-06-08T04:51:24.204Z,35.36
2017-06-08T04:52:24.211Z,35.27
2017-06-08T04:53:24.270Z,35.36
2017-06-08T04:54:24.238Z,35.46
2017-06-08T04:55:24.234Z,35.36
2017-06-08T04:56:24.243Z,35.36
2017-06-08T04:57:23.941Z,35.36
2017-06-08T04:58:24.261Z,35.56
2017-06-08T04:59:23.957Z,35.46
2017-06-08T05:00:24.279Z,35.46
2017-06-08T05:01:24.284Z,35.46
2017-06-08T05:02:24.344Z,35.56
2017-06-08T05:03:24.303Z,35.46
2017-06-08T05:04:24.358Z,35.46
2017-06-08T05:05:24.059Z,35.56
2017-06-08T05:06:24.050Z,35.46
2017-06-08T05:07:24.124Z,35.36
2017-06-08T05:08:24.343Z,35.46
2017-06-08T05:09:24.351Z,35.36
2017-06-08T05:10:24.360Z,35.46
2017-06-08T05:11:24.368Z,35.27
2017-06-08T05:12:24.116Z,35.27
2017-06-08T05:13:24.390Z,35.27
2017-06-08T05:14:24.393Z,35.36
2017-06-08T05:15:24.413Z,35.27
2017-06-08T05:16:24.511Z,35.27
2017-06-08T05:17:24.418Z,35.27
2017-06-08T05:18:24.430Z,35.46
2017-06-08T05:19:24.435Z,35.56
2017-06-08T05:20:24.443Z,35.46
2017-06-08T05:21:24.142Z,35.56
2017-06-08T05:22:24.465Z,35.56
2017-06-08T05:23:24.471Z,35.56
2017-06-08T05:24:24.478Z,35.56
2017-06-08T05:25:24.488Z,35.56
2017-06-08T05:26:24.546Z,35.46
2017-06-08T05:27:24.193Z,35.56
2017-06-08T05:28:24.510Z,35.56
2017-06-08T05:29:24.519Z,35.46
2017-06-08T05:30:24.527Z,35.56
2017-06-08T05:31:24.585Z,35.46
2017-06-08T05:32:24.595Z,35.56
2017-06-08T05:33:24.554Z,35.56
2017-06-08T05:34:24.559Z,35.56
2017-06-08T05:35:24.569Z,35.56
2017-06-08T05:36:24.578Z,35.56
2017-06-08T05:37:24.587Z,35.46
2017-06-08T05:38:24.594Z,35.56
2017-06-08T05:39:24.662Z,35.56
2017-06-08T05:40:24.614Z,35.56
2017-06-08T05:41:24.359Z,35.56
2017-06-08T05:42:24.630Z,35.46
2017-06-08T05:43:24.736Z,35.46
2017-06-08T05:44:24.643Z,35.46
2017-06-08T05:45:24.702Z,35.56
2017-06-08T05:46:24.662Z,35.56
2017-06-08T05:47:24.726Z,35.17
2017-06-08T05:48:24.676Z,35.17
2017-06-08T05:49:24.686Z,35.36
2017-06-08T05:50:24.434Z,35.46
2017-06-08T05:51:24.395Z,35.46
2017-06-08T05:52:24.709Z,35.56
2017-06-08T05:53:24.720Z,35.56
2017-06-08T05:54:24.728Z,35.56
2017-06-08T05:55:24.740Z,35.56
2017-06-08T05:56:24.433Z,35.56
2017-06-08T05:57:24.443Z,35.46
2017-06-08T05:58:24.760Z,35.46
2017-06-08T05:59:24.461Z,35.46
2017-06-08T06:00:24.777Z,35.46
2017-06-08T06:01:24.787Z,35.56
2017-06-08T06:02:24.797Z,35.56
2017-06-08T06:03:24.804Z,35.56
2017-06-08T06:04:24.865Z,35.56
2017-06-08T06:05:24.821Z,35.46
2017-06-08T06:06:24.829Z,35.56
2017-06-08T06:07:24.841Z,35.17
2017-06-08T06:08:24.852Z,35.56
2017-06-08T06:09:24.856Z,35.46
2017-06-08T06:10:24.863Z,35.56
2017-06-08T06:11:24.872Z,35.56
2017-06-08T06:12:24.931Z,35.27
2017-06-08T06:13:25.228Z,35.46
2017-06-08T06:14:24.895Z,35.27
2017-06-08T06:15:24.904Z,35.46
2017-06-08T06:16:24.911Z,35.46
2017-06-08T06:17:24.619Z,35.36
2017-06-08T06:18:24.618Z,35.46
2017-06-08T06:19:24.628Z,35.46
2017-06-08T06:20:24.636Z,35.46
2017-06-08T06:21:24.955Z,35.46
2017-06-08T06:22:24.653Z,35.46
2017-06-08T06:23:24.971Z,35.46
2017-06-08T06:24:24.979Z,35.46
2017-06-08T06:25:24.679Z,35.36
2017-06-08T06:26:24.998Z,35.46
2017-06-08T06:27:24.698Z,35.56
2017-06-08T06:28:25.018Z,35.17
2017-06-08T06:29:25.024Z,35.27
2017-06-08T06:30:25.031Z,35.17
2017-06-08T06:31:25.055Z,35.36
2017-06-08T06:32:24.738Z,35.17
2017-06-08T06:33:25.106Z,35.17
2017-06-08T06:34:25.066Z,35.19
2017-06-08T06:35:24.766Z,34.88
2017-06-08T06:36:25.133Z,34.89
2017-06-08T06:37:25.091Z,34.8
2017-06-08T06:38:24.840Z,34.89
2017-06-08T06:39:25.108Z,34.99
2017-06-08T06:40:24.804Z,34.99
2017-06-08T06:41:25.124Z,34.99
2017-06-08T06:42:25.133Z,34.89
2017-06-08T06:43:25.193Z,34.51
2017-06-08T06:44:25.152Z,34.41
2017-06-08T06:45:25.211Z,34.41
2017-06-08T06:46:25.170Z,34.12
2017-06-08T06:47:25.175Z,34.61
2017-06-08T06:48:25.191Z,34.31
2017-06-08T06:49:25.245Z,34.02
2017-06-08T06:50:25.253Z,34.41
2017-06-08T06:51:25.210Z,34.04
2017-06-08T06:52:25.219Z,34.43
2017-06-08T06:53:25.229Z,33.94
2017-06-08T06:54:25.236Z,34.43
2017-06-08T06:55:25.244Z,34.62
2017-06-08T06:56:25.254Z,34.51
2017-06-08T06:57:24.952Z,34.61
2017-06-08T06:58:25.271Z,33.92
2017-06-08T06:59:25.277Z,34.12
2017-06-08T07:00:24.976Z,34.22
2017-06-08T07:01:25.295Z,33.84
2017-06-08T07:02:25.355Z,33.84
2017-06-08T07:03:25.315Z,34.16
2017-06-08T07:04:25.321Z,33.84
2017-06-08T07:05:25.017Z,34.04
2017-06-08T07:06:25.028Z,34.04
2017-06-08T07:07:25.395Z,33.84
2017-06-08T07:08:25.047Z,33.84
2017-06-08T07:09:25.103Z,34.43
2017-06-08T07:10:25.375Z,33.75
2017-06-08T07:11:25.381Z,34.14
2017-06-08T07:12:25.078Z,34.33
2017-06-08T07:13:25.448Z,34.04
2017-06-08T07:14:25.095Z,33.84
2017-06-08T07:15:25.416Z,34.43
2017-06-08T07:16:25.788Z,34.14
2017-06-08T07:17:25.432Z,33.94
2017-06-08T07:18:25.740Z,34.61
2017-06-08T07:19:25.449Z,33.75
2017-06-08T07:20:25.507Z,34.8
2017-06-08T07:21:25.466Z,35.57
2017-06-08T07:22:25.164Z,36.24
2017-06-08T07:23:25.174Z,37.67
2017-06-08T07:24:25.487Z,37.54
2017-06-08T07:25:25.185Z,37.92
2017-06-08T07:26:25.503Z,38.02
2017-06-08T07:27:25.511Z,37.9
2017-06-08T07:28:25.202Z,37.54
2017-06-08T07:29:25.521Z,38.02
2017-06-08T07:30:25.534Z,38.53
2017-06-08T07:31:25.533Z,38.97
2017-06-08T07:32:25.537Z,39.26
2017-06-08T07:33:25.541Z,38.97
2017-06-08T07:34:25.237Z,39.14
2017-06-08T07:35:25.550Z,38
2017-06-08T07:36:25.602Z,36.98
2017-06-08T07:37:25.560Z,35.73
2017-06-08T07:38:25.566Z,35.09
2017-06-08T07:39:25.569Z,34.33
2017-06-08T07:40:25.577Z,34.04
2017-06-08T07:41:25.584Z,33.84
2017-06-08T07:42:25.591Z,34.16
2017-06-08T07:43:25.594Z,33.57
2017-06-08T07:44:25.602Z,33.67
2017-06-08T07:45:25.303Z,33.29
2017-06-08T07:46:25.309Z,33.2
2017-06-08T07:47:25.676Z,33.29
2017-06-08T07:48:25.632Z,33.2
2017-06-08T07:49:25.944Z,33.01
2017-06-08T07:50:25.651Z,33.39
2017-06-08T07:51:25.659Z,33.2
2017-06-08T07:52:25.665Z,32.91
2017-06-08T07:53:25.673Z,32.82
2017-06-08T07:54:25.680Z,33.01
2017-06-08T07:55:25.691Z,33.02
2017-06-08T07:56:25.696Z,32.82
2017-06-08T07:57:25.703Z,33.01
2017-06-08T07:58:25.714Z,33.01
2017-06-08T07:59:25.721Z,33.02
2017-06-08T08:00:25.732Z,33.12
2017-06-08T08:01:25.738Z,32.64
2017-06-08T08:02:25.749Z,32.54
2017-06-08T08:03:25.443Z,32.26
2017-06-08T08:04:25.503Z,32.45
2017-06-08T08:05:25.774Z,32.35
2017-06-08T08:06:25.831Z,32.17
2017-06-08T08:07:25.790Z,32.17
2017-06-08T08:08:25.798Z,32.17
2017-06-08T08:09:25.810Z,32.26
2017-06-08T08:10:25.817Z,32.17
2017-06-08T08:11:25.824Z,32.35
2017-06-08T08:12:25.836Z,32.35
2017-06-08T08:13:25.842Z,32.26
2017-06-08T08:14:25.854Z,32.35
2017-06-08T08:15:25.859Z,32.26
2017-06-08T08:16:25.871Z,32.45
2017-06-08T08:17:25.620Z,32.35
2017-06-08T08:18:25.574Z,32.55
2017-06-08T08:19:25.895Z,32.26
2017-06-08T08:20:25.914Z,32.35
2017-06-08T08:21:25.604Z,32.54
2017-06-08T08:22:25.922Z,32.54
2017-06-08T08:23:25.933Z,32.45
2017-06-08T08:24:25.943Z,32.73
2017-06-08T08:25:25.949Z,32.73
2017-06-08T08:26:26.010Z,32.64
2017-06-08T08:27:26.006Z,32.64
2017-06-08T08:28:26.017Z,32.64
2017-06-08T08:29:25.987Z,32.64
2017-06-08T08:30:26.001Z,32.82
2017-06-08T08:31:26.006Z,32.92
2017-06-08T08:32:25.701Z,32.91
2017-06-08T08:33:25.761Z,33.02
2017-06-08T08:34:26.034Z,32.82
2017-06-08T08:35:26.143Z,32.82
2017-06-08T08:36:26.053Z,32.92
2017-06-08T08:37:25.750Z,32.73
2017-06-08T08:38:26.067Z,32.64
2017-06-08T08:39:26.078Z,32.82
2017-06-08T08:40:25.778Z,32.82
2017-06-08T08:41:25.835Z,32.82
2017-06-08T08:42:26.114Z,33.02
2017-06-08T08:43:26.119Z,33.02
2017-06-08T08:44:25.816Z,33.12
2017-06-08T08:45:25.832Z,32.82
2017-06-08T08:46:25.886Z,32.73
2017-06-08T08:47:26.202Z,32.92
2017-06-08T08:48:25.848Z,32.92
2017-06-08T08:49:25.860Z,33.02
2017-06-08T08:50:25.869Z,32.82
2017-06-08T08:51:25.926Z,32.92
2017-06-08T08:52:26.198Z,33.02
2017-06-08T08:53:26.208Z,33.02
2017-06-08T08:54:25.952Z,32.54
2017-06-08T08:55:26.225Z,32.73
2017-06-08T08:56:25.923Z,32.65
2017-06-08T08:57:25.984Z,32.54
2017-06-08T08:58:26.254Z,32.73
2017-06-08T08:59:26.262Z,32.84
2017-06-08T09:00:26.274Z,32.75
2017-06-08T09:01:26.357Z,32.64
2017-06-08T09:02:25.980Z,32.73
2017-06-08T09:03:26.091Z,32.73
2017-06-08T09:04:26.100Z,32.92
2017-06-08T09:05:26.357Z,32.92
2017-06-08T09:06:26.396Z,33.02
2017-06-08T09:07:26.460Z,32.92
2017-06-08T09:08:26.442Z,32.82
2017-06-08T09:09:26.526Z,32.64
2017-06-08T09:10:26.554Z,32.75
2017-06-08T09:11:26.370Z,32.65
2017-06-08T09:12:26.384Z,32.75
2017-06-08T09:13:26.393Z,32.73
2017-06-08T09:14:26.398Z,32.92
2017-06-08T09:15:26.408Z,32.92
2017-06-08T09:16:26.415Z,33.12
2017-06-08T09:17:26.167Z,32.64
2017-06-08T09:18:26.434Z,33.04
2017-06-08T09:19:26.445Z,32.82
2017-06-08T09:20:26.451Z,33.12
2017-06-08T09:21:26.461Z,33.12
2017-06-08T09:22:26.470Z,32.92
2017-06-08T09:23:26.168Z,33.12
2017-06-08T09:24:26.177Z,33.22
2017-06-08T09:25:26.578Z,33.12
2017-06-08T09:26:26.504Z,33.02
2017-06-08T09:27:26.513Z,32.82
2017-06-08T09:28:26.214Z,33.04
2017-06-08T09:29:26.219Z,33.51
2017-06-08T09:30:26.539Z,32.92
2017-06-08T09:31:26.236Z,33.02
2017-06-08T09:32:26.245Z,33.02
2017-06-08T09:33:26.255Z,33.04
2017-06-08T09:34:26.575Z,33.12
2017-06-08T09:35:26.581Z,33.22
2017-06-08T09:36:26.281Z,33.41
2017-06-08T09:37:26.288Z,32.92
2017-06-08T09:38:26.298Z,32.92
2017-06-08T09:39:26.307Z,33.04
2017-06-08T09:40:26.930Z,33.14
2017-06-08T09:41:26.376Z,33.02
2017-06-08T09:42:26.331Z,33.31
2017-06-08T09:43:26.341Z,33.31
2017-06-08T09:44:26.351Z,33.41
2017-06-08T09:45:26.361Z,33.22
2017-06-08T09:46:26.734Z,33.31
2017-06-08T09:47:26.383Z,33.41
2017-06-08T09:48:26.386Z,33.14
2017-06-08T09:49:26.396Z,33.23
2017-06-08T09:50:26.768Z,32.84
2017-06-08T09:51:26.417Z,33.23
2017-06-08T09:52:26.786Z,33.33
2017-06-08T09:53:26.745Z,33.14
2017-06-08T09:54:26.803Z,32.84
2017-06-08T09:55:26.500Z,33.04
2017-06-08T09:56:26.773Z,33.14
2017-06-08T09:57:26.784Z,32.92
2017-06-08T09:58:26.481Z,33.02
2017-06-08T09:59:26.801Z,33.04
2017-06-08T10:00:26.812Z,33.02
2017-06-08T10:01:26.866Z,32.92
2017-06-08T10:02:26.903Z,33.12
2017-06-08T10:03:26.845Z,32.94
2017-06-08T10:04:26.851Z,32.92
2017-06-08T10:05:26.548Z,32.92
2017-06-08T10:06:26.864Z,32.82
2017-06-08T10:07:26.563Z,32.82
2017-06-08T10:08:26.881Z,32.82
2017-06-08T10:09:26.900Z,32.82
2017-06-08T10:10:26.957Z,32.92
2017-06-08T10:11:26.804Z,33.02
2017-06-08T10:12:26.917Z,33.02
2017-06-08T10:13:26.615Z,33.12
2017-06-08T10:14:26.934Z,32.92
2017-06-08T10:15:26.942Z,32.92
2017-06-08T10:16:26.692Z,32.92
2017-06-08T10:17:26.968Z,33.02
2017-06-08T10:18:27.026Z,32.92
2017-06-08T10:19:26.671Z,33.12
2017-06-08T10:20:26.988Z,32.75
2017-06-08T10:21:26.687Z,32.94
2017-06-08T10:22:26.696Z,33.02
2017-06-08T10:23:26.709Z,32.92
2017-06-08T10:24:27.028Z,33.12
2017-06-08T10:25:27.036Z,33.12
2017-06-08T10:26:27.044Z,33.41
2017-06-08T10:27:27.049Z,33.22
2017-06-08T10:28:27.061Z,33.31
2017-06-08T10:29:27.120Z,33.22
2017-06-08T10:30:26.770Z,33.22
2017-06-08T10:31:27.092Z,33.51
2017-06-08T10:32:27.099Z,33.22
2017-06-08T10:33:27.157Z,33.22
2017-06-08T10:34:27.116Z,33.41
2017-06-08T10:35:26.821Z,33.41
2017-06-08T10:36:27.136Z,33.51
2017-06-08T10:37:27.144Z,33.31
2017-06-08T10:38:27.153Z,33.12
2017-06-08T10:39:27.164Z,33.7
2017-06-08T10:40:27.220Z,33.22
2017-06-08T10:41:27.183Z,33.31
2017-06-08T10:42:27.240Z,33.7
2017-06-08T10:43:26.888Z,33.41
2017-06-08T10:44:27.205Z,33.41
2017-06-08T10:45:27.218Z,33.9
2017-06-08T10:46:27.226Z,33.22
2017-06-08T10:47:27.250Z,33.41
2017-06-08T10:48:26.986Z,33.51
2017-06-08T10:49:27.255Z,33.41
2017-06-08T10:50:26.954Z,33.9
2017-06-08T10:51:27.272Z,33.61
2017-06-08T10:52:27.279Z,33.8
2017-06-08T10:53:27.290Z,33.23
2017-06-08T10:54:27.300Z,33.62
2017-06-08T10:55:27.307Z,33.7
2017-06-08T10:56:27.318Z,33.81
2017-06-08T10:57:27.327Z,33.62
2017-06-08T10:58:27.027Z,33.72
2017-06-08T10:59:27.034Z,34.11
2017-06-08T11:00:27.095Z,33.9
2017-06-08T11:01:27.055Z,33.9
2017-06-08T11:02:27.374Z,33.9
2017-06-08T11:03:27.380Z,34.11
2017-06-08T11:04:27.443Z,33.99
2017-06-08T11:05:27.401Z,34.09
2017-06-08T11:06:27.098Z,33.9
2017-06-08T11:07:27.420Z,33.9
2017-06-08T11:08:27.427Z,34.19
2017-06-08T11:09:27.437Z,34.19
2017-06-08T11:10:27.445Z,34.01
2017-06-08T11:11:27.454Z,33.8
2017-06-08T11:12:27.467Z,34.01
2017-06-08T11:13:27.474Z,33.91
2017-06-08T11:14:27.483Z,34.01
2017-06-08T11:15:27.543Z,34.01
2017-06-08T11:16:27.503Z,34.11
2017-06-08T11:17:27.512Z,34.01
2017-06-08T11:18:27.520Z,33.91
2017-06-08T11:19:27.270Z,34.01
2017-06-08T11:20:27.230Z,34.2
2017-06-08T11:21:27.548Z,34.4
2017-06-08T11:22:27.612Z,34.38
2017-06-08T11:23:27.569Z,34.77
2017-06-08T11:24:27.315Z,34.77
2017-06-08T11:25:27.600Z,34.28
2017-06-08T11:26:27.604Z,34.38
2017-06-08T11:27:27.293Z,34.67
2017-06-08T11:28:27.612Z,34.77
2017-06-08T11:29:27.624Z,34.38
2017-06-08T11:30:27.395Z,34.58
2017-06-08T11:31:27.331Z,34.67
2017-06-08T11:32:27.653Z,33.9
2017-06-08T11:33:27.708Z,34.19
2017-06-08T11:34:27.360Z,34.3
2017-06-08T11:35:27.680Z,33.91
2017-06-08T11:36:27.688Z,33.91
2017-06-08T11:37:27.701Z,34.28
2017-06-08T11:38:27.709Z,34.28
2017-06-08T11:39:27.716Z,34.09
2017-06-08T11:40:27.728Z,33.81
2017-06-08T11:41:27.741Z,33.99
2017-06-08T11:42:27.796Z,34.5
2017-06-08T11:43:27.753Z,34.5
2017-06-08T11:44:27.765Z,34.38
2017-06-08T11:45:27.774Z,34.48
2017-06-08T11:46:27.477Z,34.28
2017-06-08T11:47:27.790Z,34.48
2017-06-08T11:48:27.803Z,34.67
2017-06-08T11:49:27.813Z,34.28
2017-06-08T11:50:27.819Z,34.38
2017-06-08T11:51:27.828Z,34.88
2017-06-08T11:52:27.836Z,34.67
2017-06-08T11:53:27.846Z,34.77
2017-06-08T11:54:27.544Z,35.06
2017-06-08T11:55:27.865Z,35.06
2017-06-08T11:56:27.925Z,35.06
2017-06-08T11:57:27.881Z,35.06
2017-06-08T11:58:27.632Z,35.16
2017-06-08T11:59:27.592Z,35.16
2017-06-08T12:00:27.602Z,35.06
2017-06-08T12:01:27.918Z,35.16
2017-06-08T12:02:27.928Z,34.77
2017-06-08T12:03:27.990Z,34.97
2017-06-08T12:04:27.949Z,34.97
2017-06-08T12:05:27.646Z,34.87
2017-06-08T12:06:27.655Z,35.06
2017-06-08T12:07:27.977Z,34.87
2017-06-08T12:08:27.985Z,35.06
2017-06-08T12:09:27.999Z,34.97
2017-06-08T12:10:28.001Z,34.87
2017-06-08T12:11:28.012Z,34.87
2017-06-08T12:12:28.024Z,34.87
2017-06-08T12:13:28.035Z,34.77
2017-06-08T12:14:28.040Z,34.77
2017-06-08T12:15:28.100Z,35.06
2017-06-08T12:16:28.062Z,35.06
2017-06-08T12:17:28.066Z,35.16
2017-06-08T12:18:28.076Z,34.87
2017-06-08T12:19:28.085Z,34.87
2017-06-08T12:20:28.097Z,34.77
2017-06-08T12:21:28.106Z,34.77
2017-06-08T12:22:28.112Z,34.77
2017-06-08T12:23:27.816Z,34.77
2017-06-08T12:24:27.824Z,34.58
2017-06-08T12:25:28.142Z,34.77
2017-06-08T12:26:27.838Z,34.67
2017-06-08T12:27:28.160Z,34.77
2017-06-08T12:28:27.907Z,34.19
2017-06-08T12:29:28.181Z,34.58
2017-06-08T12:30:28.236Z,34.28
2017-06-08T12:31:28.200Z,34.67
2017-06-08T12:32:28.207Z,35.06
2017-06-08T12:33:28.216Z,35.06
2017-06-08T12:34:28.223Z,35.16
2017-06-08T12:35:27.976Z,35.16
2017-06-08T12:36:28.293Z,34.97
2017-06-08T12:37:28.249Z,34.97
2017-06-08T12:38:28.000Z,35.16
2017-06-08T12:39:28.012Z,35.06
2017-06-08T12:40:28.280Z,35.06
2017-06-08T12:41:28.337Z,35.06
2017-06-08T12:42:28.297Z,34.97
2017-06-08T12:43:28.306Z,35.25
2017-06-08T12:44:28.321Z,34.97
2017-06-08T12:45:28.325Z,35.25
2017-06-08T12:46:28.027Z,35.25
2017-06-08T12:47:28.033Z,35.16
2017-06-08T12:48:28.353Z,35.06
2017-06-08T12:49:28.053Z,35.25
2017-06-08T12:50:28.423Z,35.35
2017-06-08T12:51:28.384Z,35.16
2017-06-08T12:52:28.438Z,35.35
2017-06-08T12:53:28.401Z,35.35
2017-06-08T12:54:28.417Z,35.55